createdAt,value
2019-06-01T00:02:20.041Z,3.50
2019-06-01T00:06:31.775Z,4.10
2019-06-01T00:10:43.740Z,4.30
2019-06-01T00:14:55.932Z,4.43
2019-06-01T00:19:07.695Z,4.10
2019-06-01T00:23:19.488Z,4.20
2019-06-01T00:27:31.408Z,5.20
2019-06-01T00:31:43.363Z,4.10
2019-06-01T00:35:55.238Z,3.97
2019-06-01T00:40:07.660Z,3.90
2019-06-01T00:44:19.472Z,3.33
2019-06-01T00:48:31.344Z,3.57
2019-06-01T00:52:43.023Z,6.27
2019-06-01T00:56:54.708Z,4.17
2019-06-01T01:01:06.525Z,4.33
2019-06-01T01:05:20.564Z,4.10
2019-06-01T01:09:32.356Z,4.03
2019-06-01T01:13:45.671Z,3.90
2019-06-01T01:17:57.618Z,5.10
2019-06-01T01:22:09.492Z,3.63
2019-06-01T01:26:21.532Z,4.27
2019-06-01T01:30:33.489Z,4.30
2019-06-01T01:34:45.429Z,5.60
2019-06-01T01:38:58.421Z,3.37
2019-06-01T01:43:10.788Z,5.20
2019-06-01T01:47:22.636Z,3.80
2019-06-01T01:51:34.484Z,4.57
2019-06-01T01:55:46.396Z,4.13
2019-06-01T01:59:59.388Z,4.90
2019-06-01T02:04:11.203Z,4.80
2019-06-01T02:08:23.120Z,4.30
2019-06-01T02:12:35.078Z,5.60
2019-06-01T02:16:47.108Z,4.93
2019-06-01T02:20:58.940Z,5.67
2019-06-01T02:25:10.960Z,4.47
2019-06-01T02:29:22.804Z,4.50
2019-06-01T02:33:34.509Z,5.33
2019-06-01T02:37:47.272Z,5.03
2019-06-01T02:41:59.174Z,5.13
2019-06-01T02:46:11.481Z,6.27
2019-06-01T02:50:23.533Z,5.47
2019-06-01T02:54:35.290Z,4.03
2019-06-01T02:58:47.112Z,4.13
2019-06-01T03:02:58.703Z,4.43
2019-06-01T03:07:13.197Z,4.23
2019-06-01T03:11:27.396Z,3.97
2019-06-01T03:15:41.059Z,4.87
2019-06-01T03:19:53.238Z,7.10
2019-06-01T03:24:12.825Z,6.63
2019-06-01T03:28:27.415Z,5.93
2019-06-01T03:32:39.376Z,6.30
2019-06-01T03:36:52.357Z,5.70
2019-06-01T03:41:04.327Z,6.83
2019-06-01T03:45:16.227Z,5.57
2019-06-01T03:49:28.076Z,5.87
2019-06-01T03:53:40.016Z,5.50
2019-06-01T03:57:51.885Z,7.07
2019-06-01T04:02:05.074Z,5.33
2019-06-01T04:06:16.707Z,6.57
2019-06-01T04:10:28.407Z,7.77
2019-06-01T04:14:40.349Z,7.40
2019-06-01T04:18:52.113Z,8.77
2019-06-01T04:23:04.599Z,6.93
2019-06-01T04:27:16.517Z,6.40
2019-06-01T04:31:28.369Z,8.50
2019-06-01T04:35:39.999Z,6.23
2019-06-01T04:39:51.808Z,7.70
2019-06-01T04:44:03.755Z,7.37
2019-06-01T04:48:15.620Z,8.13
2019-06-01T04:52:27.435Z,8.03
2019-06-01T04:56:39.117Z,8.30
2019-06-01T05:00:50.931Z,6.27
2019-06-01T05:05:02.615Z,8.67
2019-06-01T05:09:15.737Z,6.60
2019-06-01T05:13:27.583Z,5.43
2019-06-01T05:17:39.464Z,5.80
2019-06-01T05:21:51.271Z,7.77
2019-06-01T05:26:03.067Z,6.27
2019-06-01T05:30:15.734Z,6.87
2019-06-01T05:34:27.529Z,6.03
2019-06-01T05:38:39.489Z,6.40
2019-06-01T05:42:51.424Z,6.43
2019-06-01T05:47:03.466Z,6.83
2019-06-01T05:51:18.154Z,5.57
2019-06-01T05:55:29.063Z,8.20
2019-06-01T05:59:40.927Z,5.37
2019-06-01T06:03:52.556Z,5.20
2019-06-01T06:08:04.352Z,6.23
2019-06-01T06:12:17.219Z,4.73
2019-06-01T06:16:29.388Z,4.20
2019-06-01T06:20:41.289Z,6.20
2019-06-01T06:24:52.928Z,4.93
2019-06-01T06:29:04.839Z,5.23
2019-06-01T06:33:17.348Z,5.50
2019-06-01T06:37:29.028Z,5.33
2019-06-01T06:41:40.814Z,6.03
2019-06-01T06:45:52.815Z,7.37
2019-06-01T06:50:04.708Z,6.43
2019-06-01T06:54:17.622Z,5.60
2019-06-01T06:58:29.367Z,5.47
2019-06-01T07:02:41.310Z,5.23
2019-06-01T07:06:54.278Z,7.80
2019-06-01T07:11:06.113Z,5.77
2019-06-01T07:15:19.155Z,5.80
2019-06-01T07:19:32.329Z,4.40
2019-06-01T07:23:44.723Z,6.80
2019-06-01T07:27:58.476Z,4.33
2019-06-01T07:32:10.502Z,3.93
2019-06-01T07:36:22.365Z,4.40
2019-06-01T07:40:34.212Z,5.27
2019-06-01T07:44:45.883Z,4.57
2019-06-01T07:48:57.624Z,3.83
2019-06-01T07:53:09.517Z,4.13
2019-06-01T07:57:23.565Z,4.97
2019-06-01T08:01:35.392Z,3.40
2019-06-01T08:05:47.237Z,4.13
2019-06-01T08:10:00.836Z,3.70
2019-06-01T08:14:12.722Z,4.70
2019-06-01T08:18:25.915Z,3.27
2019-06-01T08:22:38.008Z,3.50
2019-06-01T08:26:49.751Z,2.93
2019-06-01T08:31:04.379Z,4.97
2019-06-01T08:35:16.364Z,2.77
2019-06-01T08:39:29.343Z,3.97
2019-06-01T08:43:43.792Z,3.23
2019-06-01T08:48:00.085Z,3.37
2019-06-01T08:52:13.766Z,4.57
2019-06-01T08:56:28.250Z,5.20
2019-06-01T09:00:43.204Z,3.13
2019-06-01T09:04:59.545Z,2.83
2019-06-01T09:09:20.001Z,3.50
2019-06-01T09:13:42.535Z,4.03
2019-06-01T09:17:57.227Z,4.10
2019-06-01T09:22:12.290Z,3.40
2019-06-01T09:26:24.136Z,2.90
2019-06-01T09:30:37.661Z,4.33
2019-06-01T09:34:49.632Z,4.00
2019-06-01T09:39:01.501Z,4.00
2019-06-01T09:43:13.342Z,3.30
2019-06-01T09:47:25.064Z,5.10
2019-06-01T09:51:37.757Z,4.60
2019-06-01T09:55:49.637Z,3.90
2019-06-01T10:00:01.404Z,6.13
2019-06-01T10:04:13.309Z,4.67
2019-06-01T10:08:25.103Z,3.50
2019-06-01T10:12:38.093Z,3.60
2019-06-01T10:16:49.862Z,4.60
2019-06-01T10:21:01.520Z,5.23
2019-06-01T10:25:13.536Z,3.47
2019-06-01T10:29:25.340Z,4.50
2019-06-01T10:33:37.454Z,4.27
2019-06-01T10:37:49.405Z,3.43
2019-06-01T10:42:01.259Z,2.87
2019-06-01T10:46:13.114Z,3.77
2019-06-01T10:50:24.965Z,5.87
2019-06-01T10:54:36.561Z,3.27
2019-06-01T10:58:59.175Z,2.87
2019-06-01T11:03:01.734Z,3.37
2019-06-01T11:07:13.597Z,3.37
2019-06-01T11:11:25.398Z,3.50
2019-06-01T11:15:37.253Z,6.00
2019-06-01T11:19:49.932Z,3.97
2019-06-01T11:24:01.725Z,3.00
2019-06-01T11:28:13.520Z,3.90
2019-06-01T11:32:25.392Z,4.93
2019-06-01T11:36:54.118Z,4.00
2019-06-01T11:40:50.803Z,2.83
2019-06-01T11:45:02.780Z,2.80
2019-06-01T11:49:14.449Z,3.73
2019-06-01T11:53:26.181Z,3.07
2019-06-01T11:57:39.348Z,4.83
2019-06-01T12:01:51.448Z,6.17
2019-06-01T12:06:03.308Z,2.60
2019-06-01T12:10:15.315Z,3.30
2019-06-01T12:14:26.924Z,3.03
2019-06-01T12:18:38.774Z,4.13
2019-06-01T12:22:50.620Z,2.60
2019-06-01T12:27:02.425Z,2.70
2019-06-01T12:31:14.313Z,3.00
2019-06-01T12:35:25.972Z,3.07
2019-06-01T12:39:38.747Z,4.03
2019-06-01T12:44:08.416Z,3.13
2019-06-01T12:48:21.241Z,2.97
2019-06-01T12:52:32.991Z,3.87
2019-06-01T12:56:44.843Z,3.10
2019-06-01T13:00:56.508Z,3.03
2019-06-01T13:05:08.488Z,3.63
2019-06-01T13:09:20.295Z,5.00
2019-06-01T13:13:32.152Z,3.07
2019-06-01T13:17:45.291Z,3.00
2019-06-01T13:21:57.109Z,2.60
2019-06-01T13:26:08.835Z,2.73
2019-06-01T13:30:20.682Z,3.30
2019-06-01T13:34:34.236Z,2.30
2019-06-01T13:38:46.686Z,3.40
2019-06-01T13:42:58.531Z,2.87
2019-06-01T13:47:10.420Z,2.90
2019-06-01T13:51:22.240Z,3.10
2019-06-01T13:55:33.801Z,2.30
2019-06-01T13:59:46.876Z,3.00
2019-06-01T14:03:58.828Z,2.73
2019-06-01T14:08:27.585Z,2.40
2019-06-01T14:12:24.179Z,3.73
2019-06-01T14:16:35.780Z,3.63
2019-06-01T14:20:47.593Z,2.30
2019-06-01T14:25:10.452Z,2.80
2019-06-01T14:29:12.908Z,4.83
2019-06-01T14:33:24.900Z,4.23
2019-06-01T14:37:36.967Z,2.67
2019-06-01T14:41:49.071Z,2.87
2019-06-01T14:46:00.936Z,4.77
2019-06-01T14:50:12.721Z,2.40
2019-06-01T14:54:24.597Z,2.40
2019-06-01T14:58:36.432Z,2.87
2019-06-01T15:02:48.325Z,4.33
2019-06-01T15:07:00.141Z,3.50
2019-06-01T15:11:11.933Z,2.67
2019-06-01T15:15:23.952Z,2.00
2019-06-01T15:19:35.746Z,2.20
2019-06-01T15:23:47.659Z,2.00
2019-06-01T15:27:59.312Z,2.00
2019-06-01T15:32:11.144Z,2.00
2019-06-01T15:36:22.993Z,2.70
2019-06-01T15:40:34.847Z,3.10
2019-06-01T15:44:46.649Z,2.60
2019-06-01T15:49:00.037Z,2.90
2019-06-01T15:53:12.110Z,2.27
2019-06-01T15:57:23.773Z,2.77
2019-06-01T16:01:35.555Z,3.00
2019-06-01T16:05:47.389Z,3.00
2019-06-01T16:10:07.585Z,5.10
2019-06-01T16:14:14.059Z,3.07
2019-06-01T16:18:25.880Z,2.70
2019-06-01T16:22:37.574Z,2.93
2019-06-01T16:26:49.249Z,2.63
2019-06-01T16:31:01.113Z,2.23
2019-06-01T16:35:12.913Z,2.40
2019-06-01T16:39:24.821Z,2.27
2019-06-01T16:43:36.378Z,2.60
2019-06-01T16:47:48.147Z,2.43
2019-06-01T16:52:01.350Z,3.33
2019-06-01T16:56:13.288Z,2.63
2019-06-01T17:00:25.248Z,2.20
2019-06-01T17:04:36.812Z,3.40
2019-06-01T17:08:48.495Z,2.33
2019-06-01T17:13:01.622Z,3.13
2019-06-01T17:17:13.835Z,2.27
2019-06-01T17:21:25.644Z,2.70
2019-06-01T17:25:37.239Z,2.67
2019-06-01T17:29:48.936Z,4.83
2019-06-01T17:34:00.785Z,3.23
2019-06-01T17:38:13.772Z,3.10
2019-06-01T17:42:25.676Z,5.17
2019-06-01T17:46:52.358Z,3.33
2019-06-01T17:50:50.789Z,2.60
2019-06-01T17:55:03.211Z,3.70
2019-06-01T17:59:17.293Z,3.17
2019-06-01T18:03:29.154Z,3.23
2019-06-01T18:07:40.793Z,3.47
2019-06-01T18:11:52.552Z,3.80
2019-06-01T18:16:04.640Z,2.83
2019-06-01T18:20:16.772Z,3.03
2019-06-01T18:24:28.743Z,3.40
2019-06-01T18:28:40.693Z,2.83
2019-06-01T18:32:53.202Z,3.00
2019-06-01T18:37:05.742Z,3.07
2019-06-01T18:41:20.023Z,2.87
2019-06-01T18:45:31.184Z,2.70
2019-06-01T18:49:42.856Z,3.43
2019-06-01T18:53:54.774Z,3.10
2019-06-01T18:58:08.285Z,3.20
2019-06-01T19:02:20.238Z,3.30
2019-06-01T19:06:32.337Z,3.33
2019-06-01T19:10:44.386Z,3.80
2019-06-01T19:14:56.236Z,3.67
2019-06-01T19:19:08.278Z,3.57
2019-06-01T19:23:22.459Z,3.33
2019-06-01T19:27:33.432Z,3.40
2019-06-01T19:31:45.481Z,2.83
2019-06-01T19:35:57.837Z,3.33
2019-06-01T19:40:11.270Z,3.47
2019-06-01T19:44:23.125Z,5.40
2019-06-01T19:48:34.941Z,8.27
2019-06-01T19:52:46.739Z,4.40
2019-06-01T19:56:58.557Z,4.87
2019-06-01T20:01:10.201Z,3.00
2019-06-01T20:05:22.952Z,2.97
2019-06-01T20:09:35.030Z,3.03
2019-06-01T20:13:46.875Z,2.73
2019-06-01T20:17:58.480Z,3.13
2019-06-01T20:22:10.777Z,5.73
2019-06-01T20:26:38.729Z,3.40
2019-06-01T20:30:35.917Z,2.70
2019-06-01T20:34:47.820Z,3.17
2019-06-01T20:39:04.049Z,3.97
2019-06-01T20:43:14.514Z,3.43
2019-06-01T20:47:26.725Z,3.50
2019-06-01T20:51:38.411Z,3.57
2019-06-01T20:55:50.088Z,5.20
2019-06-01T21:00:01.897Z,3.73
2019-06-01T21:04:14.058Z,3.50
2019-06-01T21:08:25.918Z,3.37
2019-06-01T21:12:44.685Z,3.47
2019-06-01T21:16:51.096Z,4.23
2019-06-01T21:21:02.940Z,3.80
2019-06-01T21:25:14.908Z,4.20
2019-06-01T21:29:26.770Z,4.07
2019-06-01T21:33:38.700Z,4.57
2019-06-01T21:37:50.677Z,5.40
2019-06-01T21:42:02.565Z,3.97
2019-06-01T21:46:15.447Z,4.87
2019-06-01T21:50:27.405Z,4.50
2019-06-01T21:54:39.300Z,4.97
2019-06-01T21:58:52.136Z,4.53
2019-06-01T22:03:03.761Z,4.20
2019-06-01T22:07:16.955Z,4.33
2019-06-01T22:11:29.176Z,4.47
2019-06-01T22:15:41.025Z,4.37
2019-06-01T22:19:53.818Z,4.40
2019-06-01T22:24:05.414Z,4.20
2019-06-01T22:28:18.118Z,4.53
2019-06-01T22:32:31.783Z,4.60
2019-06-01T22:36:43.945Z,5.40
2019-06-01T22:40:55.822Z,4.77
2019-06-01T22:45:08.007Z,5.47
2019-06-01T22:49:20.642Z,5.73
2019-06-01T22:53:32.620Z,5.83
2019-06-01T22:57:44.422Z,4.70
2019-06-01T23:01:56.215Z,6.20
2019-06-01T23:06:08.314Z,6.13
2019-06-01T23:10:26.326Z,5.20
2019-06-01T23:14:34.664Z,4.93
2019-06-01T23:18:46.370Z,4.80
2019-06-01T23:22:58.188Z,5.87
2019-06-01T23:27:09.992Z,6.00
2019-06-01T23:31:22.271Z,4.97
2019-06-01T23:35:34.093Z,5.90
2019-06-01T23:39:46.043Z,5.47
2019-06-01T23:44:11.014Z,4.67
2019-06-01T23:48:11.509Z,5.13
2019-06-01T23:52:23.606Z,4.77
2019-06-01T23:56:35.478Z,5.00
